Kuujjuaq, Canada
Current Conditions -  °F | °C
As of 3:00 AM on Sunday 26 Oct 2014 (Local Time) from CYVP Reporting Station
Broken Clouds Broken Clouds  
Wind Chill: 25°   Ceiling: 12000
Heat Index: 34°   Visibility: 15mi
Dew Point: 27°   Wind: 12mph
Humidity: 75%   Direction: 120°ESE
Pressure: 29.69"   Gusts: 20mph
Location:  58.22°N, 68.37°W
Report Text: CYVP 260700Z 12010G17KT 15SM FEW028 BKN120 01/M03 A2969 RMK SC2AC5 SLP058
Loading
Personal Weather Stations






























Interactive Weather Map
Tropical Storm Tracking
New forecast layout! Learn more

10-Day Weather Forecast

Advertisements
Track Severe Weather on mobile